Terminal Aerodrome Forecast
Issued by NWS

Home | Current Version | Previous Version | Text Only | Print | Product List | Glossary On
Versions: 1 2 3 4 5 6 7 8 9 10 11 12
796
FTUS42 KTBW 051126
TAFLAL
TAF
KLAL 051126Z 0512/0612 15003KT P6SM SCT005 SCT250
      TEMPO 0512/0513 3SM BR BKN005
     FM051500 17010KT P6SM SCT015 BKN030 OVC050
     FM052100 18010KT P6SM VCSH SCT025 OVC040
     FM060000 16005KT 5SM -RA VCTS SCT025CB OVC040
     FM060600 17009KT 4SM -RA BR VCTS SCT010CB OVC020=

USA.gov is the U.S. government's official web portal to all federal, state and local government web resources and services.